Ackerly, Texas
Current Conditions -  °F | °C
As of 1:55 AM on Thursday 27 Nov 2014 (Local Time) from KBPG Reporting Station
Clear Clear  
Wind Chill: 39°   Ceiling: Unl
Heat Index: 43°   Visibility: 10mi
Dew Point: 31°   Wind: 8mph
Humidity: 62%   Direction: 80°E
Pressure: 30.42"   Gusts: NA
Location:  32.53°N, 101.72°W
Report Text: KBPG 270755Z AUTO 08007KT 10SM CLR 06/00 A3042 RMK AO2 T00631004
Loading
Personal Weather Stations






























Interactive Weather Map New forecast layout! Learn more

10-Day Weather Forecast

Advertisements
Track Severe Weather on mobile